createdAt,value
2018-02-11T00:00:31.732Z,2.30
2018-02-11T00:02:59.322Z,2.20
2018-02-11T00:05:27.004Z,2.20
2018-02-11T00:07:55.335Z,2.10
2018-02-11T00:10:22.917Z,2.00
2018-02-11T00:12:50.508Z,2.10
2018-02-11T00:15:18.874Z,2.00
2018-02-11T00:17:47.231Z,2.10
2018-02-11T00:20:14.906Z,2.00
2018-02-11T00:22:42.500Z,2.10
2018-02-11T00:25:10.114Z,2.10
2018-02-11T00:27:37.790Z,2.10
2018-02-11T00:30:05.394Z,2.10
2018-02-11T00:32:33.188Z,2.00
2018-02-11T00:35:00.910Z,2.10
2018-02-11T00:37:34.242Z,2.00
2018-02-11T00:40:01.853Z,2.00
2018-02-11T00:42:29.467Z,2.00
2018-02-11T00:44:57.026Z,1.90
2018-02-11T00:47:25.379Z,1.90
2018-02-11T00:49:52.951Z,1.80
2018-02-11T00:52:20.529Z,1.80
2018-02-11T00:54:48.193Z,1.90
2018-02-11T00:57:15.771Z,1.90
2018-02-11T00:59:44.109Z,1.90
2018-02-11T01:02:11.686Z,1.90
2018-02-11T01:04:40.048Z,1.90
2018-02-11T01:07:07.611Z,1.80
2018-02-11T01:09:35.218Z,1.90
2018-02-11T01:12:02.775Z,1.80
2018-02-11T01:14:30.348Z,1.70
2018-02-11T01:16:57.922Z,1.80
2018-02-11T01:19:25.534Z,1.80
2018-02-11T01:21:53.115Z,1.90
2018-02-11T01:24:20.680Z,1.90
2018-02-11T01:26:48.340Z,1.80
2018-02-11T01:29:15.903Z,1.80
2018-02-11T01:31:43.487Z,1.70
2018-02-11T01:34:11.053Z,1.80
2018-02-11T01:36:38.679Z,1.80
2018-02-11T01:39:07.153Z,1.80
2018-02-11T01:41:34.747Z,1.80
2018-02-11T01:44:02.336Z,1.80
2018-02-11T01:46:30.699Z,1.60
2018-02-11T01:48:59.047Z,1.70
2018-02-11T01:51:26.659Z,1.60
2018-02-11T01:53:54.252Z,1.70
2018-02-11T01:56:21.843Z,1.70
2018-02-11T01:58:49.410Z,1.70
2018-02-11T02:01:17.773Z,1.70
2018-02-11T02:03:45.364Z,1.60
2018-02-11T02:06:12.939Z,1.60
2018-02-11T02:08:40.634Z,1.70
2018-02-11T02:11:08.201Z,1.70
2018-02-11T02:13:35.778Z,1.60
2018-02-11T02:16:04.259Z,1.70
2018-02-11T02:18:32.618Z,1.70
2018-02-11T02:21:01.067Z,1.70
2018-02-11T02:23:28.666Z,1.60
2018-02-11T02:25:57.023Z,1.60
2018-02-11T02:28:24.596Z,1.50
2018-02-11T02:30:52.261Z,1.60
2018-02-11T02:33:19.830Z,1.60
2018-02-11T02:35:48.202Z,1.60
2018-02-11T02:38:15.824Z,1.50
2018-02-11T02:40:43.423Z,1.60
2018-02-11T02:43:11.800Z,1.60
2018-02-11T02:45:40.160Z,1.50
2018-02-11T02:48:07.888Z,1.50
2018-02-11T02:50:35.508Z,1.50
2018-02-11T02:53:03.838Z,1.50
2018-02-11T02:55:31.417Z,1.40
2018-02-11T02:57:58.979Z,1.40
2018-02-11T03:00:26.638Z,1.30
2018-02-11T03:02:54.333Z,1.20
2018-02-11T03:05:21.915Z,1.20
2018-02-11T03:07:49.484Z,1.30
2018-02-11T03:10:17.170Z,1.20
2018-02-11T03:12:44.755Z,1.30
2018-02-11T03:15:12.363Z,1.50
2018-02-11T03:17:39.947Z,1.40
2018-02-11T03:20:07.571Z,1.20
2018-02-11T03:22:35.232Z,1.20
2018-02-11T03:25:02.798Z,1.20
2018-02-11T03:27:30.370Z,1.20
2018-02-11T03:29:58.050Z,1.10
2018-02-11T03:32:25.611Z,1.00
2018-02-11T03:34:53.203Z,1.00
2018-02-11T03:37:20.795Z,0.80
2018-02-11T03:39:48.376Z,0.80
2018-02-11T03:42:16.090Z,0.80
2018-02-11T03:44:43.680Z,0.80
2018-02-11T03:47:11.259Z,0.80
2018-02-11T03:49:38.903Z,0.70
2018-02-11T03:52:06.491Z,0.70
2018-02-11T03:54:34.843Z,1.00
2018-02-11T03:57:02.448Z,0.90
2018-02-11T03:59:30.008Z,1.10
2018-02-11T04:01:57.664Z,1.20
2018-02-11T04:04:25.237Z,1.20
2018-02-11T04:06:52.850Z,1.10
2018-02-11T04:09:20.484Z,1.20
2018-02-11T04:11:48.081Z,1.20
2018-02-11T04:14:16.454Z,1.20
2018-02-11T04:16:44.117Z,1.20
2018-02-11T04:19:12.496Z,1.30
2018-02-11T04:21:40.830Z,1.20
2018-02-11T04:24:08.410Z,1.20
2018-02-11T04:26:36.086Z,1.30
2018-02-11T04:29:03.737Z,1.30
2018-02-11T04:31:31.321Z,1.30
2018-02-11T04:33:59.755Z,1.10
2018-02-11T04:36:27.331Z,1.10
2018-02-11T04:38:55.000Z,1.20
2018-02-11T04:41:22.610Z,1.10
2018-02-11T04:43:50.220Z,1.20
2018-02-11T04:46:18.591Z,1.20
2018-02-11T04:48:46.260Z,1.10
2018-02-11T04:51:14.773Z,1.10
2018-02-11T04:53:42.436Z,1.10
2018-02-11T04:56:10.005Z,1.20
2018-02-11T04:58:37.613Z,1.00
2018-02-11T05:01:05.990Z,0.90
2018-02-11T05:03:34.457Z,0.90
2018-02-11T05:06:02.017Z,0.80
2018-02-11T05:08:31.094Z,0.50
2018-02-11T05:10:58.676Z,0.50
2018-02-11T05:13:26.265Z,0.50
2018-02-11T05:15:53.893Z,0.50
2018-02-11T05:18:21.457Z,0.40
2018-02-11T05:20:49.055Z,0.30
2018-02-11T05:23:16.617Z,0.20
2018-02-11T05:25:44.284Z,0.30
2018-02-11T05:28:11.907Z,0.30
2018-02-11T05:30:40.253Z,0.00
2018-02-11T05:33:07.832Z,-0.10
2018-02-11T05:35:36.209Z,0.00
2018-02-11T05:38:04.551Z,0.00
2018-02-11T05:40:32.125Z,-0.10
2018-02-11T05:42:59.744Z,-0.10
2018-02-11T05:45:27.317Z,-0.10
2018-02-11T05:47:54.881Z,-0.10
2018-02-11T05:50:22.471Z,-0.10
2018-02-11T05:52:50.055Z,-0.10
2018-02-11T05:55:17.690Z,-0.10
2018-02-11T05:57:45.299Z,-0.10
2018-02-11T06:00:12.915Z,-0.30
2018-02-11T06:02:41.263Z,-0.40
2018-02-11T06:05:08.826Z,-0.50
2018-02-11T06:07:36.556Z,-0.10
2018-02-11T06:10:04.136Z,-0.20
2018-02-11T06:12:31.711Z,-0.30
2018-02-11T06:14:59.298Z,-0.30
2018-02-11T06:17:27.629Z,-0.30
2018-02-11T06:19:55.214Z,-0.30
2018-02-11T06:22:22.774Z,-0.30
2018-02-11T06:24:51.202Z,-0.40
2018-02-11T06:27:18.815Z,-0.50
2018-02-11T06:29:46.418Z,-0.50
2018-02-11T06:32:14.019Z,-0.40
2018-02-11T06:34:41.684Z,-0.40
2018-02-11T06:37:09.275Z,-0.40
2018-02-11T06:39:36.854Z,-0.40
2018-02-11T06:42:04.484Z,-0.30
2018-02-11T06:44:32.835Z,-0.30
2018-02-11T06:47:00.408Z,-0.40
2018-02-11T06:49:28.750Z,-0.50
2018-02-11T06:51:56.319Z,-0.50
2018-02-11T06:54:23.907Z,-0.40
2018-02-11T06:56:52.370Z,-0.30
2018-02-11T06:59:20.745Z,-0.20
2018-02-11T07:01:48.347Z,-0.20
2018-02-11T07:04:15.920Z,-0.20
2018-02-11T07:06:43.609Z,-0.20
2018-02-11T07:09:11.184Z,-0.10
2018-02-11T07:11:38.776Z,-0.10
2018-02-11T07:14:06.403Z,0.00
2018-02-11T07:16:34.747Z,0.10
2018-02-11T07:19:02.347Z,0.10
2018-02-11T07:21:30.687Z,0.30
2018-02-11T07:23:58.263Z,0.30
2018-02-11T07:26:25.863Z,0.40
2018-02-11T07:28:53.430Z,0.70
2018-02-11T07:31:21.071Z,1.10
2018-02-11T07:33:48.652Z,1.60
2018-02-11T07:36:16.205Z,2.10
2018-02-11T07:38:43.877Z,2.20
2018-02-11T07:41:11.448Z,2.10
2018-02-11T07:43:39.093Z,2.00
2018-02-11T07:46:06.755Z,2.00
2018-02-11T07:48:34.332Z,2.30
2018-02-11T07:51:01.916Z,3.20
2018-02-11T07:53:29.484Z,3.90
2018-02-11T07:55:57.847Z,5.80
2018-02-11T07:58:25.519Z,5.70
2018-02-11T08:00:53.945Z,6.30
2018-02-11T08:03:21.605Z,6.30
2018-02-11T08:05:49.164Z,6.70
2018-02-11T08:08:16.738Z,7.00
2018-02-11T08:10:44.289Z,6.80
2018-02-11T08:13:11.878Z,7.10
2018-02-11T08:15:39.546Z,7.30
2018-02-11T08:18:07.976Z,6.80
2018-02-11T08:20:35.867Z,6.80
2018-02-11T08:23:03.455Z,6.50
2018-02-11T08:25:31.923Z,5.60
2018-02-11T08:27:59.513Z,5.50
2018-02-11T08:30:27.864Z,4.80
2018-02-11T08:32:55.442Z,4.70
2018-02-11T08:35:23.784Z,4.80
2018-02-11T08:37:51.379Z,4.80
2018-02-11T08:40:18.993Z,5.00
2018-02-11T08:42:46.559Z,4.90
2018-02-11T08:45:14.226Z,4.60
2018-02-11T08:47:42.663Z,4.50
2018-02-11T08:50:10.325Z,4.30
2018-02-11T08:52:38.052Z,4.00
2018-02-11T08:55:05.650Z,3.80
2018-02-11T08:57:33.208Z,3.70
2018-02-11T09:00:01.794Z,3.60
2018-02-11T09:02:29.486Z,3.60
2018-02-11T09:04:57.055Z,3.90
2018-02-11T09:07:25.396Z,4.60
2018-02-11T09:09:52.958Z,4.50
2018-02-11T09:12:20.663Z,4.30
2018-02-11T09:14:48.247Z,4.60
2018-02-11T09:17:15.873Z,4.50
2018-02-11T09:19:44.256Z,4.30
2018-02-11T09:22:12.671Z,4.10
2018-02-11T09:24:40.233Z,4.10
2018-02-11T09:27:07.827Z,4.10
2018-02-11T09:29:35.549Z,4.10
2018-02-11T09:32:03.221Z,4.10
2018-02-11T09:34:30.839Z,4.10
2018-02-11T09:36:59.175Z,4.20
2018-02-11T09:39:26.759Z,4.10
2018-02-11T09:41:55.092Z,4.10
2018-02-11T09:44:22.676Z,4.10
2018-02-11T09:46:50.712Z,4.50
2018-02-11T09:49:18.290Z,4.80
2018-02-11T09:51:45.857Z,5.20
2018-02-11T09:54:13.447Z,5.60
2018-02-11T09:56:41.051Z,6.40
2018-02-11T09:59:08.646Z,7.30
2018-02-11T10:01:36.200Z,7.90
2018-02-11T10:04:03.771Z,8.70
2018-02-11T10:06:42.196Z,9.00
2018-02-11T10:09:09.895Z,8.90
2018-02-11T10:11:37.491Z,9.20
2018-02-11T10:14:05.092Z,8.40
2018-02-11T10:16:32.687Z,8.10
2018-02-11T10:19:00.262Z,8.40
2018-02-11T10:21:27.882Z,8.50
2018-02-11T10:23:55.457Z,8.00
2018-02-11T10:26:23.031Z,7.60
2018-02-11T10:28:50.654Z,7.30
2018-02-11T10:31:18.330Z,6.70
2018-02-11T10:33:46.024Z,5.90
2018-02-11T10:36:13.599Z,5.70
2018-02-11T10:38:41.930Z,5.70
2018-02-11T10:41:09.516Z,5.70
2018-02-11T10:43:37.180Z,5.60
2018-02-11T10:46:04.893Z,5.60
2018-02-11T10:48:33.139Z,5.80
2018-02-11T10:51:01.473Z,6.10
2018-02-11T10:53:29.058Z,6.00
2018-02-11T10:55:57.472Z,5.90
2018-02-11T10:58:25.072Z,5.90
2018-02-11T11:00:52.640Z,6.00
2018-02-11T11:03:20.231Z,5.90
2018-02-11T11:05:47.842Z,5.80
2018-02-11T11:08:15.402Z,5.90
2018-02-11T11:10:42.991Z,5.80
2018-02-11T11:13:11.328Z,6.20
2018-02-11T11:15:38.881Z,6.20
2018-02-11T11:18:06.442Z,6.20
2018-02-11T11:20:34.011Z,6.10
2018-02-11T11:23:01.593Z,5.90
2018-02-11T11:25:29.913Z,5.70
2018-02-11T11:27:57.482Z,5.70
2018-02-11T11:30:25.083Z,5.80
2018-02-11T11:32:53.442Z,5.80
2018-02-11T11:35:21.043Z,5.80
2018-02-11T11:37:49.375Z,5.90
2018-02-11T11:40:16.939Z,5.80
2018-02-11T11:42:44.513Z,6.00
2018-02-11T11:45:22.825Z,5.80
2018-02-11T11:47:51.334Z,5.60
2018-02-11T11:50:21.084Z,5.50
2018-02-11T11:52:49.336Z,5.50
2018-02-11T11:55:16.941Z,5.70
2018-02-11T11:57:45.580Z,6.00
2018-02-11T12:00:13.184Z,6.00
2018-02-11T12:02:41.522Z,6.00
2018-02-11T12:05:09.097Z,5.90
2018-02-11T12:07:36.667Z,5.80
2018-02-11T12:10:04.280Z,6.00
2018-02-11T12:12:31.868Z,6.10
2018-02-11T12:14:59.441Z,6.20
2018-02-11T12:17:27.123Z,6.10
2018-02-11T12:19:55.479Z,6.50
2018-02-11T12:22:23.151Z,6.40
2018-02-11T12:24:51.495Z,6.80
2018-02-11T12:27:19.065Z,6.80
2018-02-11T12:29:46.753Z,7.00
2018-02-11T12:32:15.084Z,6.80
2018-02-11T12:34:42.659Z,6.80
2018-02-11T12:37:10.323Z,6.80
2018-02-11T12:39:37.877Z,6.60
2018-02-11T12:42:05.456Z,6.10
2018-02-11T12:44:33.110Z,5.80
2018-02-11T12:47:01.488Z,5.50
2018-02-11T12:49:29.051Z,5.50
2018-02-11T12:51:56.615Z,5.60
2018-02-11T12:54:25.028Z,5.50
2018-02-11T12:56:52.607Z,5.40
2018-02-11T12:59:20.314Z,5.60
2018-02-11T13:01:48.644Z,5.60
2018-02-11T13:04:16.345Z,5.50
2018-02-11T13:06:43.896Z,5.60
2018-02-11T13:09:11.508Z,5.60
2018-02-11T13:11:39.348Z,5.70
2018-02-11T13:14:07.163Z,5.70
2018-02-11T13:16:35.450Z,5.60
2018-02-11T13:19:12.942Z,5.50
2018-02-11T13:21:42.349Z,5.60
2018-02-11T13:24:09.927Z,5.50
2018-02-11T13:26:38.307Z,5.40
2018-02-11T13:29:06.649Z,5.50
2018-02-11T13:31:34.224Z,5.40
2018-02-11T13:34:01.841Z,5.50
2018-02-11T13:36:29.587Z,5.50
2018-02-11T13:38:57.155Z,5.60
2018-02-11T13:41:24.720Z,5.80
2018-02-11T13:43:52.300Z,5.80
2018-02-11T13:46:20.309Z,5.70
2018-02-11T13:48:48.147Z,5.70
2018-02-11T13:51:15.719Z,5.70
2018-02-11T13:53:44.139Z,5.40
2018-02-11T13:56:11.714Z,5.40
2018-02-11T13:58:39.278Z,5.30
2018-02-11T14:01:06.839Z,5.20
2018-02-11T14:03:34.418Z,5.10
2018-02-11T14:06:02.088Z,5.20
2018-02-11T14:08:30.416Z,5.30
2018-02-11T14:10:58.008Z,5.30
2018-02-11T14:13:25.561Z,5.30
2018-02-11T14:15:53.212Z,5.30
2018-02-11T14:18:20.774Z,5.30
2018-02-11T14:20:48.349Z,5.60
2018-02-11T14:23:15.925Z,5.30
2018-02-11T14:25:44.310Z,5.30
2018-02-11T14:28:12.005Z,5.20
2018-02-11T14:30:39.765Z,5.00
2018-02-11T14:33:07.369Z,5.20
2018-02-11T14:35:34.939Z,5.40
2018-02-11T14:38:03.279Z,5.40
2018-02-11T14:40:30.840Z,5.40
2018-02-11T14:42:58.446Z,5.60
2018-02-11T14:45:26.034Z,5.50
2018-02-11T14:47:53.608Z,5.50
2018-02-11T14:50:21.278Z,5.80
2018-02-11T14:52:48.965Z,5.70
2018-02-11T14:55:17.334Z,5.60
2018-02-11T14:57:44.882Z,5.60
2018-02-11T15:00:12.442Z,5.80
2018-02-11T15:02:40.009Z,5.80
2018-02-11T15:05:07.583Z,5.50
2018-02-11T15:07:35.941Z,5.40
2018-02-11T15:10:03.489Z,5.30
2018-02-11T15:12:31.830Z,5.10
2018-02-11T15:14:59.388Z,5.10
2018-02-11T15:17:27.045Z,5.00
2018-02-11T15:19:54.644Z,5.10
2018-02-11T15:22:22.299Z,4.90
2018-02-11T15:24:49.884Z,5.00
2018-02-11T15:27:18.238Z,5.00
2018-02-11T15:29:45.801Z,5.00
2018-02-11T15:32:13.381Z,4.90
2018-02-11T15:34:40.974Z,5.40
2018-02-11T15:37:08.547Z,5.10
2018-02-11T15:39:36.106Z,4.80
2018-02-11T15:42:03.776Z,4.60
2018-02-11T15:44:31.444Z,4.40
2018-02-11T15:46:59.126Z,4.40
2018-02-11T15:49:27.464Z,4.30
2018-02-11T15:51:55.040Z,4.20
2018-02-11T15:54:22.714Z,4.10
2018-02-11T15:56:51.042Z,4.20
2018-02-11T15:59:18.640Z,4.10
2018-02-11T16:01:46.259Z,4.20
2018-02-11T16:04:13.868Z,4.20
2018-02-11T16:06:42.193Z,4.10
2018-02-11T16:09:09.763Z,4.10
2018-02-11T16:11:37.342Z,4.00
2018-02-11T16:14:04.932Z,4.10
2018-02-11T16:16:33.287Z,4.10
2018-02-11T16:19:00.871Z,4.00
2018-02-11T16:21:29.328Z,4.00
2018-02-11T16:23:57.051Z,4.00
2018-02-11T16:26:24.651Z,4.00
2018-02-11T16:28:53.008Z,4.00
2018-02-11T16:31:20.570Z,4.00
2018-02-11T16:33:48.175Z,4.10
2018-02-11T16:36:15.762Z,3.90
2018-02-11T16:38:43.340Z,3.90
2018-02-11T16:41:10.894Z,3.80
2018-02-11T16:43:38.482Z,3.80
2018-02-11T16:46:06.852Z,3.80
2018-02-11T16:48:35.940Z,3.90
2018-02-11T16:51:03.606Z,3.90
2018-02-11T16:53:31.205Z,3.90
2018-02-11T16:55:58.803Z,4.00
2018-02-11T16:58:26.410Z,4.00
2018-02-11T17:00:54.768Z,3.70
2018-02-11T17:03:23.193Z,3.70
2018-02-11T17:05:50.793Z,3.60
2018-02-11T17:08:18.372Z,3.70
2018-02-11T17:10:46.723Z,3.80
2018-02-11T17:13:14.294Z,3.80
2018-02-11T17:15:41.875Z,3.80
2018-02-11T17:18:09.464Z,3.80
2018-02-11T17:20:37.029Z,3.80
2018-02-11T17:23:04.602Z,3.80
2018-02-11T17:25:32.200Z,3.80
2018-02-11T17:28:00.524Z,3.70
2018-02-11T17:30:28.212Z,3.60
2018-02-11T17:32:55.795Z,3.60
2018-02-11T17:35:24.160Z,3.50
2018-02-11T17:37:52.501Z,3.50
2018-02-11T17:40:20.076Z,3.40
2018-02-11T17:42:47.651Z,3.50
2018-02-11T17:45:15.305Z,3.50
2018-02-11T17:47:42.871Z,3.60
2018-02-11T17:50:11.228Z,3.50
2018-02-11T17:52:38.807Z,3.50
2018-02-11T17:55:07.192Z,3.50
2018-02-11T17:57:34.756Z,3.40
2018-02-11T18:00:03.546Z,3.50
2018-02-11T18:02:31.874Z,3.50
2018-02-11T18:04:59.438Z,3.40
2018-02-11T18:07:26.996Z,3.50
2018-02-11T18:09:54.583Z,3.40
2018-02-11T18:12:22.910Z,3.30
2018-02-11T18:14:50.567Z,3.30
2018-02-11T18:17:18.143Z,3.30
2018-02-11T18:19:45.714Z,3.30
2018-02-11T18:22:13.370Z,3.40
2018-02-11T18:24:40.941Z,3.30
2018-02-11T18:27:08.514Z,3.40
2018-02-11T18:29:36.871Z,3.40
2018-02-11T18:32:04.499Z,3.40
2018-02-11T18:34:32.074Z,3.30
2018-02-11T18:36:59.635Z,3.30
2018-02-11T18:39:27.214Z,3.40
2018-02-11T18:41:54.869Z,3.40
2018-02-11T18:44:22.522Z,3.50
2018-02-11T18:46:50.122Z,3.40
2018-02-11T18:49:17.678Z,3.50
2018-02-11T18:51:45.332Z,3.50
2018-02-11T18:54:13.661Z,3.50
2018-02-11T18:56:41.241Z,3.40
2018-02-11T18:59:08.908Z,3.50
2018-02-11T19:01:37.259Z,3.50
2018-02-11T19:04:04.924Z,3.40
2018-02-11T19:06:32.569Z,3.40
2018-02-11T19:09:00.148Z,3.40
2018-02-11T19:11:27.817Z,3.40
2018-02-11T19:13:55.480Z,3.40
2018-02-11T19:16:23.030Z,3.40
2018-02-11T19:18:50.626Z,3.30
2018-02-11T19:21:18.215Z,3.40
2018-02-11T19:23:45.787Z,3.20
2018-02-11T19:26:13.382Z,3.40
2018-02-11T19:28:41.734Z,3.40
2018-02-11T19:31:10.166Z,3.40
2018-02-11T19:33:37.758Z,3.30
2018-02-11T19:36:05.365Z,3.40
2018-02-11T19:38:33.702Z,3.40
2018-02-11T19:41:01.265Z,3.30
2018-02-11T19:43:28.858Z,3.40
2018-02-11T19:45:57.254Z,3.30
2018-02-11T19:48:24.852Z,3.30
2018-02-11T19:50:52.420Z,3.30
2018-02-11T19:53:20.050Z,3.20
2018-02-11T19:55:47.631Z,3.10
2018-02-11T19:58:15.193Z,3.20
2018-02-11T20:00:42.787Z,3.20
2018-02-11T20:03:11.197Z,3.20
2018-02-11T20:05:38.855Z,3.20
2018-02-11T20:08:06.470Z,3.10
2018-02-11T20:10:34.790Z,3.40
2018-02-11T20:13:02.363Z,3.30
2018-02-11T20:15:29.914Z,3.40
2018-02-11T20:17:57.493Z,3.40
2018-02-11T20:20:25.064Z,3.40
2018-02-11T20:22:52.655Z,3.40
2018-02-11T20:25:20.344Z,3.40
2018-02-11T20:27:47.920Z,3.40
2018-02-11T20:30:15.481Z,3.40
2018-02-11T20:32:43.092Z,3.40
2018-02-11T20:35:10.705Z,3.30
2018-02-11T20:37:38.258Z,3.30
2018-02-11T20:40:05.817Z,3.40
2018-02-11T20:42:33.409Z,3.30
2018-02-11T20:45:01.734Z,3.30
2018-02-11T20:47:29.290Z,3.20
2018-02-11T20:49:56.858Z,3.20
2018-02-11T20:52:24.418Z,3.30
2018-02-11T20:54:52.000Z,3.40
2018-02-11T20:57:19.558Z,3.40
2018-02-11T20:59:47.342Z,3.40
2018-02-11T21:02:14.950Z,3.20
2018-02-11T21:04:42.526Z,3.10
2018-02-11T21:07:10.070Z,3.10
2018-02-11T21:09:37.658Z,3.00
2018-02-11T21:12:05.232Z,3.20
2018-02-11T21:14:33.546Z,3.20
2018-02-11T21:17:01.145Z,3.10
2018-02-11T21:19:28.715Z,3.20
2018-02-11T21:21:57.086Z,3.30
2018-02-11T21:24:24.705Z,3.30
2018-02-11T21:26:53.049Z,3.40
2018-02-11T21:29:21.401Z,3.40
2018-02-11T21:31:48.970Z,3.30
2018-02-11T21:34:17.332Z,3.30
2018-02-11T21:36:44.913Z,3.20
2018-02-11T21:39:13.267Z,3.20
2018-02-11T21:41:40.839Z,3.10
2018-02-11T21:44:09.196Z,3.00
2018-02-11T21:46:36.760Z,3.00
2018-02-11T21:49:04.359Z,2.90
2018-02-11T21:51:31.978Z,3.00
2018-02-11T21:53:59.543Z,2.90
2018-02-11T21:56:27.886Z,3.00
2018-02-11T21:58:55.451Z,2.90
2018-02-11T22:01:23.044Z,3.00
2018-02-11T22:03:51.523Z,2.90
2018-02-11T22:06:19.849Z,2.90
2018-02-11T22:08:47.620Z,2.90
2018-02-11T22:11:15.315Z,2.80
2018-02-11T22:13:43.694Z,2.80
2018-02-11T22:16:12.046Z,2.70
2018-02-11T22:18:39.631Z,2.60
2018-02-11T22:21:08.071Z,2.60
2018-02-11T22:23:35.618Z,2.50
2018-02-11T22:26:03.457Z,2.50
2018-02-11T22:28:31.006Z,2.50
2018-02-11T22:30:59.460Z,2.50
2018-02-11T22:33:27.100Z,2.40
2018-02-11T22:35:54.673Z,2.50
2018-02-11T22:38:22.246Z,2.50
2018-02-11T22:40:50.585Z,2.50
2018-02-11T22:43:18.173Z,2.50
2018-02-11T22:45:45.733Z,2.60
2018-02-11T22:48:13.342Z,2.50
2018-02-11T22:50:40.921Z,2.50
2018-02-11T22:53:08.477Z,2.50
2018-02-11T22:55:36.036Z,2.60
2018-02-11T22:58:03.602Z,2.60
2018-02-11T23:00:31.179Z,2.60
2018-02-11T23:02:59.554Z,2.70
2018-02-11T23:05:27.174Z,2.60
2018-02-11T23:07:54.887Z,2.70
2018-02-11T23:10:23.221Z,2.70
2018-02-11T23:12:50.795Z,2.60
2018-02-11T23:15:18.387Z,2.60
2018-02-11T23:17:46.035Z,2.70
2018-02-11T23:20:14.382Z,2.80
2018-02-11T23:22:41.964Z,2.80
2018-02-11T23:25:09.529Z,2.80
2018-02-11T23:27:37.983Z,3.00
2018-02-11T23:30:05.560Z,2.90
2018-02-11T23:32:33.895Z,2.90
2018-02-11T23:35:01.586Z,2.90
2018-02-11T23:37:29.195Z,2.90
2018-02-11T23:39:56.806Z,2.90
2018-02-11T23:42:24.487Z,2.80
2018-02-11T23:44:52.033Z,2.80
2018-02-11T23:47:19.693Z,2.90
2018-02-11T23:49:47.323Z,3.00
2018-02-11T23:52:14.886Z,2.80
2018-02-11T23:54:42.456Z,2.80
2018-02-11T23:57:10.030Z,2.90
2018-02-11T23:59:38.372Z,2.80
